Denio, NV

10:27 AM PDT on 30. Mars 2015 (GMT -0700)
Winnemucca Municipal | | Change Station
CLOSE
Current Station
Airport
Location: Winnemucca,
Elevation: 4311 ft
Nearby Weather Stations

Elev 4311 ft 40.90 °N, 117.81 °W | Updated 31 minutes ago

Heiðskírt
Heiðskírt
56 °F
Feels Like 56 °F
N
6
Vindur Breytileg vindátt Vindur from ANA

Í dag
High -- | Low -- °F
--% Chance of Precip.
Yesterday
High -- | Low -- °F
Precip. -- in
6:40 AM 7:17 PM
Waxing Gibbous, 81% visible
Loftþrýstingur 30.17 in
Skyggni 10.0 miles
Clouds Heiðskírt
Daggarmark 16 °F
Raki 21%
Rainfall 0.00 in
Snow Depth Not available.
UV 4 out of 12
Pollen 8.30 out of 12
Air Quality Not available.
Flu Activity Not available.
METAR KWMC 301656Z AUTO 07005KT 10SM CLR 13/M09 A3019 RMK AO2 SLP214 T01331089

More Conditions Fewer Conditions

Loftþrýstingur 30.17 in
Skyggni 10.0 miles
Clouds Heiðskírt
Daggarmark 16 °F
Raki 21%
Rainfall 0.00 in
Snow Depth Not available.
UV 4 out of 12
Pollen 8.30 out of 12
Air Quality Not available.
Flu Activity Not available.
METAR KWMC 301656Z AUTO 07005KT 10SM CLR 13/M09 A3019 RMK AO2 SLP214 T01331089

More Conditions Fewer Conditions

10-Day Weather Forecast

Almanac

Astronomy

Mar. 30, 2015 Rise Set
Actual Time
Civil Twilight
Nautical Twilight
Astronomical Twilight
Moon
Length Of Visible Light
Length of Day
Tomorrow will be .
, % of the Moon is Illuminated

Today's Extremes

State Highs State Lows

Community

WunderPhotos

Upload Photos

1,809,542 photos uploaded!

WunderBlogs® & News

Nearby

Air Quality

  Air Quality AQ Index Pollutant
Not available.

Snow Depth

Station Depth Elevation

Earthquake Activity

Staður Distance Mag. Time & Date
Minimum magnitude displayed is 2.5.

Coastal Water Temperatures

Staður Hitastig

Stations

Nearby Weather Stations

Station Location Temp Vindkæling Daggarmark Raki Vindur Precip. Elev Uppfært Type